Ampere, New Jersey
Current Conditions -  °F | °C
As of 12:51 AM on Wednesday 26 Nov 2014 (Local Time) from KEWR Reporting Station
Overcast Overcast  
Wind Chill:   Ceiling: 14000
Heat Index:   Visibility: 10mi
Dew Point: -1°   Wind: 3mph
Humidity: 52%   Direction: 260°W
Pressure: 30.16"   Gusts: NA
Location:  40.7716°N, 74.2073°W
Report Text: KEWR 260551Z 26003KT 10SM FEW110 OVC140 09/M01 A3016 RMK AO2 SLP211 T00891006 10100 20078 50008 $
Loading
Personal Weather Stations






























Interactive Weather Map New forecast layout! Learn more

10-Day Weather Forecast

Advertisements
Track Severe Weather on mobile